sensor_id;sensor_type;location;lat;lon;timestamp;temperature;humidity
10304;DHT22;5197;48.152;8.590;2024-03-02T00:01:59;5.80;16.50
10304;DHT22;5197;48.152;8.590;2024-03-02T00:04:26;5.70;16.50
10304;DHT22;5197;48.152;8.590;2024-03-02T00:06:53;5.70;16.50
10304;DHT22;5197;48.152;8.590;2024-03-02T00:09:22;5.70;16.50
10304;DHT22;5197;48.152;8.590;2024-03-02T00:11:49;5.80;16.70
10304;DHT22;5197;48.152;8.590;2024-03-02T00:14:17;5.80;16.70
10304;DHT22;5197;48.152;8.590;2024-03-02T00:16:44;5.80;16.80
10304;DHT22;5197;48.152;8.590;2024-03-02T00:19:11;5.70;16.70
10304;DHT22;5197;48.152;8.590;2024-03-02T00:21:38;5.80;16.80
10304;DHT22;5197;48.152;8.590;2024-03-02T00:24:24;5.80;17.10
10304;DHT22;5197;48.152;8.590;2024-03-02T00:26:55;5.70;16.80
10304;DHT22;5197;48.152;8.590;2024-03-02T00:29:21;5.70;16.90
10304;DHT22;5197;48.152;8.590;2024-03-02T00:31:48;5.80;16.90
10304;DHT22;5197;48.152;8.590;2024-03-02T00:34:15;5.80;17.00
10304;DHT22;5197;48.152;8.590;2024-03-02T00:36:44;5.80;16.90
10304;DHT22;5197;48.152;8.590;2024-03-02T00:39:12;5.80;17.00
10304;DHT22;5197;48.152;8.590;2024-03-02T00:41:41;5.80;17.00
10304;DHT22;5197;48.152;8.590;2024-03-02T00:44:12;5.80;17.10
10304;DHT22;5197;48.152;8.590;2024-03-02T00:46:40;5.80;17.00
10304;DHT22;5197;48.152;8.590;2024-03-02T00:49:18;5.80;17.10
10304;DHT22;5197;48.152;8.590;2024-03-02T00:51:52;5.90;17.20
10304;DHT22;5197;48.152;8.590;2024-03-02T00:54:22;5.80;17.10
10304;DHT22;5197;48.152;8.590;2024-03-02T00:56:54;5.80;17.40
10304;DHT22;5197;48.152;8.590;2024-03-02T00:59:23;5.70;17.60
10304;DHT22;5197;48.152;8.590;2024-03-02T01:01:50;5.70;17.50
10304;DHT22;5197;48.152;8.590;2024-03-02T01:04:18;5.70;18.00
10304;DHT22;5197;48.152;8.590;2024-03-02T01:06:45;5.70;18.00
10304;DHT22;5197;48.152;8.590;2024-03-02T01:09:12;5.60;17.80
10304;DHT22;5197;48.152;8.590;2024-03-02T01:11:39;5.60;18.00
10304;DHT22;5197;48.152;8.590;2024-03-02T01:14:06;5.60;17.90
10304;DHT22;5197;48.152;8.590;2024-03-02T01:16:33;5.60;18.20
10304;DHT22;5197;48.152;8.590;2024-03-02T01:19:00;5.60;18.00
10304;DHT22;5197;48.152;8.590;2024-03-02T01:21:27;5.60;19.10
10304;DHT22;5197;48.152;8.590;2024-03-02T01:23:54;5.60;18.20
10304;DHT22;5197;48.152;8.590;2024-03-02T01:26:21;5.50;18.30
10304;DHT22;5197;48.152;8.590;2024-03-02T01:28:48;5.50;18.70
10304;DHT22;5197;48.152;8.590;2024-03-02T01:31:15;5.40;18.60
10304;DHT22;5197;48.152;8.590;2024-03-02T01:33:42;5.40;18.60
10304;DHT22;5197;48.152;8.590;2024-03-02T01:36:09;5.40;18.60
10304;DHT22;5197;48.152;8.590;2024-03-02T01:38:36;5.40;18.60
10304;DHT22;5197;48.152;8.590;2024-03-02T01:41:03;5.40;18.60
10304;DHT22;5197;48.152;8.590;2024-03-02T01:43:30;5.30;18.50
10304;DHT22;5197;48.152;8.590;2024-03-02T01:45:57;5.30;18.50
10304;DHT22;5197;48.152;8.590;2024-03-02T01:48:24;6.90;19.50
10304;DHT22;5197;48.152;8.590;2024-03-02T01:50:51;5.30;18.80
10304;DHT22;5197;48.152;8.590;2024-03-02T01:53:18;5.30;18.60
10304;DHT22;5197;48.152;8.590;2024-03-02T01:55:46;5.30;18.50
10304;DHT22;5197;48.152;8.590;2024-03-02T01:58:13;5.30;18.50
10304;DHT22;5197;48.152;8.590;2024-03-02T02:00:40;5.20;18.60
10304;DHT22;5197;48.152;8.590;2024-03-02T02:03:07;5.20;18.50
10304;DHT22;5197;48.152;8.590;2024-03-02T02:05:34;5.20;18.50
10304;DHT22;5197;48.152;8.590;2024-03-02T02:08:02;5.10;18.50
10304;DHT22;5197;48.152;8.590;2024-03-02T02:10:29;5.20;18.60
10304;DHT22;5197;48.152;8.590;2024-03-02T02:12:56;5.10;18.50
10304;DHT22;5197;48.152;8.590;2024-03-02T02:15:27;5.10;18.50
10304;DHT22;5197;48.152;8.590;2024-03-02T02:17:56;5.10;18.40
10304;DHT22;5197;48.152;8.590;2024-03-02T02:20:24;5.00;18.30
10304;DHT22;5197;48.152;8.590;2024-03-02T02:23:04;5.00;18.50
10304;DHT22;5197;48.152;8.590;2024-03-02T02:25:56;5.00;18.30
10304;DHT22;5197;48.152;8.590;2024-03-02T02:28:25;4.90;19.30
10304;DHT22;5197;48.152;8.590;2024-03-02T02:30:54;4.90;18.30
10304;DHT22;5197;48.152;8.590;2024-03-02T02:33:23;4.80;18.30
10304;DHT22;5197;48.152;8.590;2024-03-02T02:35:50;4.80;18.30
10304;DHT22;5197;48.152;8.590;2024-03-02T02:38:17;4.80;18.30
10304;DHT22;5197;48.152;8.590;2024-03-02T02:40:44;4.80;18.30
10304;DHT22;5197;48.152;8.590;2024-03-02T02:43:10;4.80;18.30
10304;DHT22;5197;48.152;8.590;2024-03-02T02:45:37;4.70;18.20
10304;DHT22;5197;48.152;8.590;2024-03-02T02:48:05;4.70;18.20
10304;DHT22;5197;48.152;8.590;2024-03-02T02:50:32;4.70;18.20
10304;DHT22;5197;48.152;8.590;2024-03-02T02:52:59;4.60;18.20
10304;DHT22;5197;48.152;8.590;2024-03-02T02:55:26;4.70;18.20
10304;DHT22;5197;48.152;8.590;2024-03-02T02:57:53;4.60;18.20
10304;DHT22;5197;48.152;8.590;2024-03-02T03:00:20;4.60;18.20
10304;DHT22;5197;48.152;8.590;2024-03-02T03:02:49;4.60;18.20
10304;DHT22;5197;48.152;8.590;2024-03-02T03:05:17;4.60;18.20
10304;DHT22;5197;48.152;8.590;2024-03-02T03:07:44;4.60;19.20
10304;DHT22;5197;48.152;8.590;2024-03-02T03:10:12;4.50;19.10
10304;DHT22;5197;48.152;8.590;2024-03-02T03:12:41;4.50;18.10
10304;DHT22;5197;48.152;8.590;2024-03-02T03:15:10;4.50;18.10
10304;DHT22;5197;48.152;8.590;2024-03-02T03:17:38;4.50;18.10
10304;DHT22;5197;48.152;8.590;2024-03-02T03:20:06;4.40;18.10
10304;DHT22;5197;48.152;8.590;2024-03-02T03:22:37;4.50;18.10
10304;DHT22;5197;48.152;8.590;2024-03-02T03:25:04;4.50;18.30
10304;DHT22;5197;48.152;8.590;2024-03-02T03:27:32;4.50;18.10
10304;DHT22;5197;48.152;8.590;2024-03-02T03:29:58;4.40;18.70
10304;DHT22;5197;48.152;8.590;2024-03-02T03:32:25;4.50;19.10
10304;DHT22;5197;48.152;8.590;2024-03-02T03:34:52;4.40;19.10
10304;DHT22;5197;48.152;8.590;2024-03-02T03:37:19;4.40;19.20
10304;DHT22;5197;48.152;8.590;2024-03-02T03:39:46;4.40;19.20
10304;DHT22;5197;48.152;8.590;2024-03-02T03:42:13;4.50;19.50
10304;DHT22;5197;48.152;8.590;2024-03-02T03:44:40;4.40;19.60
10304;DHT22;5197;48.152;8.590;2024-03-02T03:47:08;4.40;19.70
10304;DHT22;5197;48.152;8.590;2024-03-02T03:49:35;4.40;19.90
10304;DHT22;5197;48.152;8.590;2024-03-02T03:52:02;4.40;20.00
10304;DHT22;5197;48.152;8.590;2024-03-02T03:54:29;4.50;20.50
10304;DHT22;5197;48.152;8.590;2024-03-02T03:56:56;4.40;20.40
10304;DHT22;5197;48.152;8.590;2024-03-02T03:59:23;4.50;20.60
10304;DHT22;5197;48.152;8.590;2024-03-02T04:01:50;4.40;20.60
10304;DHT22;5197;48.152;8.590;2024-03-02T04:04:17;4.50;21.00
10304;DHT22;5197;48.152;8.590;2024-03-02T04:06:44;4.50;21.00
10304;DHT22;5197;48.152;8.590;2024-03-02T04:09:11;4.50;21.20
10304;DHT22;5197;48.152;8.590;2024-03-02T04:11:38;4.50;21.10
10304;DHT22;5197;48.152;8.590;2024-03-02T04:14:05;4.50;21.30
10304;DHT22;5197;48.152;8.590;2024-03-02T04:16:32;4.50;21.30
10304;DHT22;5197;48.152;8.590;2024-03-02T04:19:00;4.50;21.20
10304;DHT22;5197;48.152;8.590;2024-03-02T04:21:27;4.50;21.40
10304;DHT22;5197;48.152;8.590;2024-03-02T04:23:54;4.60;21.80
10304;DHT22;5197;48.152;8.590;2024-03-02T04:26:24;4.60;22.10
10304;DHT22;5197;48.152;8.590;2024-03-02T04:28:52;4.60;21.90
10304;DHT22;5197;48.152;8.590;2024-03-02T04:31:20;4.60;21.80
10304;DHT22;5197;48.152;8.590;2024-03-02T04:33:46;4.60;21.80
10304;DHT22;5197;48.152;8.590;2024-03-02T04:36:13;4.60;21.80
10304;DHT22;5197;48.152;8.590;2024-03-02T04:38:40;4.60;21.70
10304;DHT22;5197;48.152;8.590;2024-03-02T04:41:07;4.50;21.60
10304;DHT22;5197;48.152;8.590;2024-03-02T04:43:34;4.60;21.60
10304;DHT22;5197;48.152;8.590;2024-03-02T04:46:01;4.60;21.60
10304;DHT22;5197;48.152;8.590;2024-03-02T04:48:28;4.60;21.60
10304;DHT22;5197;48.152;8.590;2024-03-02T04:50:55;4.70;21.70
10304;DHT22;5197;48.152;8.590;2024-03-02T04:53:22;4.60;21.60
10304;DHT22;5197;48.152;8.590;2024-03-02T04:55:49;4.60;21.60
10304;DHT22;5197;48.152;8.590;2024-03-02T04:58:22;4.50;21.40
10304;DHT22;5197;48.152;8.590;2024-03-02T05:00:48;4.60;21.60
10304;DHT22;5197;48.152;8.590;2024-03-02T05:03:15;4.60;21.50
10304;DHT22;5197;48.152;8.590;2024-03-02T05:05:42;4.60;21.60
10304;DHT22;5197;48.152;8.590;2024-03-02T05:08:09;4.60;21.50
10304;DHT22;5197;48.152;8.590;2024-03-02T05:10:38;4.60;21.50
10304;DHT22;5197;48.152;8.590;2024-03-02T05:13:16;4.60;21.50
10304;DHT22;5197;48.152;8.590;2024-03-02T05:15:53;4.70;21.50
10304;DHT22;5197;48.152;8.590;2024-03-02T05:18:20;4.60;21.50
10304;DHT22;5197;48.152;8.590;2024-03-02T05:20:47;4.60;21.50
10304;DHT22;5197;48.152;8.590;2024-03-02T05:23:14;4.60;21.50
10304;DHT22;5197;48.152;8.590;2024-03-02T05:25:41;4.50;21.50
10304;DHT22;5197;48.152;8.590;2024-03-02T05:28:08;4.50;21.60
10304;DHT22;5197;48.152;8.590;2024-03-02T05:30:35;4.50;21.70
10304;DHT22;5197;48.152;8.590;2024-03-02T05:33:02;4.50;21.70
10304;DHT22;5197;48.152;8.590;2024-03-02T05:35:29;4.50;21.70
10304;DHT22;5197;48.152;8.590;2024-03-02T05:37:56;4.50;22.10
10304;DHT22;5197;48.152;8.590;2024-03-02T05:40:23;4.40;21.70
10304;DHT22;5197;48.152;8.590;2024-03-02T05:42:50;4.40;21.70
10304;DHT22;5197;48.152;8.590;2024-03-02T05:45:17;4.40;22.10
10304;DHT22;5197;48.152;8.590;2024-03-02T05:47:44;4.40;21.70
10304;DHT22;5197;48.152;8.590;2024-03-02T05:50:10;4.40;21.60
10304;DHT22;5197;48.152;8.590;2024-03-02T05:52:37;4.40;21.50
10304;DHT22;5197;48.152;8.590;2024-03-02T05:55:05;4.40;21.60
10304;DHT22;5197;48.152;8.590;2024-03-02T05:57:32;4.40;21.70
10304;DHT22;5197;48.152;8.590;2024-03-02T06:00:30;4.30;21.50
10304;DHT22;5197;48.152;8.590;2024-03-02T06:02:58;4.30;21.40
10304;DHT22;5197;48.152;8.590;2024-03-02T06:05:25;4.30;21.60
10304;DHT22;5197;48.152;8.590;2024-03-02T06:07:51;4.30;21.90
10304;DHT22;5197;48.152;8.590;2024-03-02T06:10:20;4.30;21.70
10304;DHT22;5197;48.152;8.590;2024-03-02T06:12:47;4.30;21.80
10304;DHT22;5197;48.152;8.590;2024-03-02T06:15:14;4.20;21.60
10304;DHT22;5197;48.152;8.590;2024-03-02T06:17:41;4.30;22.00
10304;DHT22;5197;48.152;8.590;2024-03-02T06:20:09;4.20;21.90
10304;DHT22;5197;48.152;8.590;2024-03-02T06:22:36;4.30;21.90
10304;DHT22;5197;48.152;8.590;2024-03-02T06:25:03;6.00;23.20
10304;DHT22;5197;48.152;8.590;2024-03-02T06:27:30;4.20;22.20
10304;DHT22;5197;48.152;8.590;2024-03-02T06:29:57;4.20;22.20
10304;DHT22;5197;48.152;8.590;2024-03-02T06:32:24;4.20;22.30
10304;DHT22;5197;48.152;8.590;2024-03-02T06:34:52;4.20;21.00
10304;DHT22;5197;48.152;8.590;2024-03-02T06:37:18;4.20;22.50
10304;DHT22;5197;48.152;8.590;2024-03-02T06:40:01;4.10;22.60
10304;DHT22;5197;48.152;8.590;2024-03-02T06:42:28;4.20;22.50
10304;DHT22;5197;48.152;8.590;2024-03-02T06:45:00;4.20;22.60
10304;DHT22;5197;48.152;8.590;2024-03-02T06:47:27;4.20;22.70
10304;DHT22;5197;48.152;8.590;2024-03-02T06:49:54;4.20;22.80
10304;DHT22;5197;48.152;8.590;2024-03-02T06:52:21;4.20;22.70
10304;DHT22;5197;48.152;8.590;2024-03-02T06:54:51;4.20;22.80
10304;DHT22;5197;48.152;8.590;2024-03-02T06:57:19;4.20;22.80
10304;DHT22;5197;48.152;8.590;2024-03-02T06:59:47;4.20;23.00
10304;DHT22;5197;48.152;8.590;2024-03-02T07:02:17;4.20;23.00
10304;DHT22;5197;48.152;8.590;2024-03-02T07:04:44;4.30;23.70
10304;DHT22;5197;48.152;8.590;2024-03-02T07:07:12;4.40;25.10
10304;DHT22;5197;48.152;8.590;2024-03-02T07:09:39;4.60;26.70
10304;DHT22;5197;48.152;8.590;2024-03-02T07:12:06;4.90;28.40
10304;DHT22;5197;48.152;8.590;2024-03-02T07:14:34;5.30;29.90
10304;DHT22;5197;48.152;8.590;2024-03-02T07:17:25;5.70;32.10
10304;DHT22;5197;48.152;8.590;2024-03-02T07:19:52;6.20;32.90
10304;DHT22;5197;48.152;8.590;2024-03-02T07:22:20;6.60;34.50
10304;DHT22;5197;48.152;8.590;2024-03-02T07:24:47;7.00;34.50
10304;DHT22;5197;48.152;8.590;2024-03-02T07:27:14;7.30;33.60
10304;DHT22;5197;48.152;8.590;2024-03-02T07:29:41;7.50;32.90
10304;DHT22;5197;48.152;8.590;2024-03-02T07:32:09;7.90;31.30
10304;DHT22;5197;48.152;8.590;2024-03-02T07:34:36;8.10;30.30
10304;DHT22;5197;48.152;8.590;2024-03-02T07:37:06;8.40;29.40
10304;DHT22;5197;48.152;8.590;2024-03-02T07:39:36;8.60;27.80
10304;DHT22;5197;48.152;8.590;2024-03-02T07:42:03;8.70;26.70
10304;DHT22;5197;48.152;8.590;2024-03-02T07:44:30;9.20;26.10
10304;DHT22;5197;48.152;8.590;2024-03-02T07:46:57;9.40;24.40
10304;DHT22;5197;48.152;8.590;2024-03-02T07:49:24;9.70;23.10
10304;DHT22;5197;48.152;8.590;2024-03-02T07:51:51;10.00;20.90
10304;DHT22;5197;48.152;8.590;2024-03-02T07:54:18;10.40;21.00
10304;DHT22;5197;48.152;8.590;2024-03-02T07:56:45;12.50;19.80
10304;DHT22;5197;48.152;8.590;2024-03-02T07:59:12;10.90;16.80
10304;DHT22;5197;48.152;8.590;2024-03-02T08:01:39;11.10;14.70
10304;DHT22;5197;48.152;8.590;2024-03-02T08:04:06;11.40;12.80
10304;DHT22;5197;48.152;8.590;2024-03-02T08:06:33;11.60;11.50
10304;DHT22;5197;48.152;8.590;2024-03-02T08:09:01;11.90;9.60
10304;DHT22;5197;48.152;8.590;2024-03-02T08:11:27;12.10;6.60
10304;DHT22;5197;48.152;8.590;2024-03-02T08:13:55;12.20;4.80
10304;DHT22;5197;48.152;8.590;2024-03-02T08:16:23;12.40;3.90
10304;DHT22;5197;48.152;8.590;2024-03-02T08:18:50;12.40;3.10
10304;DHT22;5197;48.152;8.590;2024-03-02T08:21:18;12.50;2.10
10304;DHT22;5197;48.152;8.590;2024-03-02T08:23:45;12.70;1.00
10304;DHT22;5197;48.152;8.590;2024-03-02T08:26:12;12.90;1.00
10304;DHT22;5197;48.152;8.590;2024-03-02T08:28:39;13.10;1.00
10304;DHT22;5197;48.152;8.590;2024-03-02T08:31:09;15.10;1.00
10304;DHT22;5197;48.152;8.590;2024-03-02T08:33:36;13.40;1.00
10304;DHT22;5197;48.152;8.590;2024-03-02T08:36:05;14.90;1.00
10304;DHT22;5197;48.152;8.590;2024-03-02T08:38:32;13.50;1.00
10304;DHT22;5197;48.152;8.590;2024-03-02T08:40:59;15.20;1.00
10304;DHT22;5197;48.152;8.590;2024-03-02T08:43:26;13.80;1.00
10304;DHT22;5197;48.152;8.590;2024-03-02T08:45:53;14.30;1.00
10304;DHT22;5197;48.152;8.590;2024-03-02T08:48:20;13.80;1.00
10304;DHT22;5197;48.152;8.590;2024-03-02T08:50:47;13.80;1.00
10304;DHT22;5197;48.152;8.590;2024-03-02T08:53:15;15.40;1.00
10304;DHT22;5197;48.152;8.590;2024-03-02T08:55:48;14.30;1.00
10304;DHT22;5197;48.152;8.590;2024-03-02T08:58:15;13.50;1.00
10304;DHT22;5197;48.152;8.590;2024-03-02T09:00:42;13.00;1.00
10304;DHT22;5197;48.152;8.590;2024-03-02T09:03:09;12.50;1.00
10304;DHT22;5197;48.152;8.590;2024-03-02T09:05:36;12.00;1.00
10304;DHT22;5197;48.152;8.590;2024-03-02T09:08:04;11.70;1.00
10304;DHT22;5197;48.152;8.590;2024-03-02T09:10:31;11.40;1.00
10304;DHT22;5197;48.152;8.590;2024-03-02T09:12:58;11.10;1.00
10304;DHT22;5197;48.152;8.590;2024-03-02T09:15:25;10.90;1.00
10304;DHT22;5197;48.152;8.590;2024-03-02T09:17:52;10.70;1.00
10304;DHT22;5197;48.152;8.590;2024-03-02T09:20:19;10.70;1.00
10304;DHT22;5197;48.152;8.590;2024-03-02T09:22:46;10.60;1.00
10304;DHT22;5197;48.152;8.590;2024-03-02T09:25:14;10.50;1.00
10304;DHT22;5197;48.152;8.590;2024-03-02T09:27:43;10.40;1.00
10304;DHT22;5197;48.152;8.590;2024-03-02T09:30:11;10.40;1.00
10304;DHT22;5197;48.152;8.590;2024-03-02T09:32:40;10.20;1.00
10304;DHT22;5197;48.152;8.590;2024-03-02T09:35:08;10.10;1.00
10304;DHT22;5197;48.152;8.590;2024-03-02T09:37:35;10.10;1.00
10304;DHT22;5197;48.152;8.590;2024-03-02T09:40:06;10.10;1.00
10304;DHT22;5197;48.152;8.590;2024-03-02T09:42:33;10.10;1.00
10304;DHT22;5197;48.152;8.590;2024-03-02T09:45:00;9.90;1.00
10304;DHT22;5197;48.152;8.590;2024-03-02T09:47:29;9.90;1.00
10304;DHT22;5197;48.152;8.590;2024-03-02T09:49:56;9.90;1.00
10304;DHT22;5197;48.152;8.590;2024-03-02T09:52:23;9.90;1.00
10304;DHT22;5197;48.152;8.590;2024-03-02T09:54:50;10.00;1.00
10304;DHT22;5197;48.152;8.590;2024-03-02T09:57:17;10.00;1.00
10304;DHT22;5197;48.152;8.590;2024-03-02T09:59:45;10.00;1.00
10304;DHT22;5197;48.152;8.590;2024-03-02T10:02:12;10.10;1.00
10304;DHT22;5197;48.152;8.590;2024-03-02T10:04:39;10.10;1.00
10304;DHT22;5197;48.152;8.590;2024-03-02T10:09:35;10.10;1.00
10304;DHT22;5197;48.152;8.590;2024-03-02T10:12:06;10.10;1.00
10304;DHT22;5197;48.152;8.590;2024-03-02T10:14:33;10.20;1.00
10304;DHT22;5197;48.152;8.590;2024-03-02T10:17:06;10.10;1.00
10304;DHT22;5197;48.152;8.590;2024-03-02T10:19:34;10.20;1.00
10304;DHT22;5197;48.152;8.590;2024-03-02T10:22:03;10.20;1.00
10304;DHT22;5197;48.152;8.590;2024-03-02T10:27:09;10.30;1.00
10304;DHT22;5197;48.152;8.590;2024-03-02T10:29:40;10.30;1.00
10304;DHT22;5197;48.152;8.590;2024-03-02T10:32:11;10.30;1.00
10304;DHT22;5197;48.152;8.590;2024-03-02T10:34:42;10.50;1.00
10304;DHT22;5197;48.152;8.590;2024-03-02T10:37:11;10.50;1.00
10304;DHT22;5197;48.152;8.590;2024-03-02T10:39:39;10.50;1.00
10304;DHT22;5197;48.152;8.590;2024-03-02T10:42:07;10.50;1.00
10304;DHT22;5197;48.152;8.590;2024-03-02T10:44:37;10.40;1.00
10304;DHT22;5197;48.152;8.590;2024-03-02T10:47:05;10.60;1.00
10304;DHT22;5197;48.152;8.590;2024-03-02T10:49:32;10.80;1.00
10304;DHT22;5197;48.152;8.590;2024-03-02T10:52:00;10.70;1.00
10304;DHT22;5197;48.152;8.590;2024-03-02T10:54:28;10.80;1.00
10304;DHT22;5197;48.152;8.590;2024-03-02T10:57:04;11.00;1.00
10304;DHT22;5197;48.152;8.590;2024-03-02T10:59:35;11.00;1.00
10304;DHT22;5197;48.152;8.590;2024-03-02T11:02:04;11.10;1.00
10304;DHT22;5197;48.152;8.590;2024-03-02T11:04:32;12.50;1.00
10304;DHT22;5197;48.152;8.590;2024-03-02T11:07:03;11.20;1.00
10304;DHT22;5197;48.152;8.590;2024-03-02T11:09:33;11.30;1.00
10304;DHT22;5197;48.152;8.590;2024-03-02T11:12:12;11.20;1.00
10304;DHT22;5197;48.152;8.590;2024-03-02T11:14:41;11.50;1.00
10304;DHT22;5197;48.152;8.590;2024-03-02T11:17:14;11.30;1.00
10304;DHT22;5197;48.152;8.590;2024-03-02T11:19:43;11.30;1.00
10304;DHT22;5197;48.152;8.590;2024-03-02T11:22:10;11.40;1.00
10304;DHT22;5197;48.152;8.590;2024-03-02T11:24:37;11.40;1.00
10304;DHT22;5197;48.152;8.590;2024-03-02T11:27:06;11.40;1.00
10304;DHT22;5197;48.152;8.590;2024-03-02T11:29:43;11.40;1.00
10304;DHT22;5197;48.152;8.590;2024-03-02T11:32:17;11.50;1.00
10304;DHT22;5197;48.152;8.590;2024-03-02T11:34:49;11.60;1.00
10304;DHT22;5197;48.152;8.590;2024-03-02T11:37:17;11.60;1.00
10304;DHT22;5197;48.152;8.590;2024-03-02T11:39:45;11.60;1.00
10304;DHT22;5197;48.152;8.590;2024-03-02T11:42:13;11.60;1.00
10304;DHT22;5197;48.152;8.590;2024-03-02T11:44:42;11.70;1.00
10304;DHT22;5197;48.152;8.590;2024-03-02T11:47:11;11.70;1.00
10304;DHT22;5197;48.152;8.590;2024-03-02T11:49:43;11.80;1.00
10304;DHT22;5197;48.152;8.590;2024-03-02T11:52:13;11.70;1.00
10304;DHT22;5197;48.152;8.590;2024-03-02T11:54:42;11.80;1.00
10304;DHT22;5197;48.152;8.590;2024-03-02T11:57:19;11.70;1.00
10304;DHT22;5197;48.152;8.590;2024-03-02T11:59:47;11.70;1.00
10304;DHT22;5197;48.152;8.590;2024-03-02T12:02:20;13.50;1.00
10304;DHT22;5197;48.152;8.590;2024-03-02T12:04:48;11.80;1.00
10304;DHT22;5197;48.152;8.590;2024-03-02T12:07:20;11.80;1.00
10304;DHT22;5197;48.152;8.590;2024-03-02T12:10:02;11.90;1.00
10304;DHT22;5197;48.152;8.590;2024-03-02T12:12:30;12.00;1.00
10304;DHT22;5197;48.152;8.590;2024-03-02T12:14:56;12.00;1.00
10304;DHT22;5197;48.152;8.590;2024-03-02T12:17:23;12.00;1.00
10304;DHT22;5197;48.152;8.590;2024-03-02T12:19:50;12.00;1.00
10304;DHT22;5197;48.152;8.590;2024-03-02T12:22:17;12.10;1.00
10304;DHT22;5197;48.152;8.590;2024-03-02T12:24:44;12.20;1.00
10304;DHT22;5197;48.152;8.590;2024-03-02T12:27:15;12.20;1.00
10304;DHT22;5197;48.152;8.590;2024-03-02T12:29:42;12.30;1.00
10304;DHT22;5197;48.152;8.590;2024-03-02T12:32:09;12.30;1.00
10304;DHT22;5197;48.152;8.590;2024-03-02T12:34:38;12.30;1.00
10304;DHT22;5197;48.152;8.590;2024-03-02T12:37:05;12.30;1.00
10304;DHT22;5197;48.152;8.590;2024-03-02T12:39:32;12.30;1.00
10304;DHT22;5197;48.152;8.590;2024-03-02T12:42:02;12.40;1.00
10304;DHT22;5197;48.152;8.590;2024-03-02T12:44:29;13.40;1.00
10304;DHT22;5197;48.152;8.590;2024-03-02T12:46:56;12.40;1.00
10304;DHT22;5197;48.152;8.590;2024-03-02T12:49:26;12.50;1.00
10304;DHT22;5197;48.152;8.590;2024-03-02T12:51:55;12.50;1.00
10304;DHT22;5197;48.152;8.590;2024-03-02T12:54:24;12.70;1.00
10304;DHT22;5197;48.152;8.590;2024-03-02T12:56:52;12.60;1.00
10304;DHT22;5197;48.152;8.590;2024-03-02T12:59:23;12.60;1.00
10304;DHT22;5197;48.152;8.590;2024-03-02T13:01:54;12.70;1.00
10304;DHT22;5197;48.152;8.590;2024-03-02T13:04:28;12.70;1.00
10304;DHT22;5197;48.152;8.590;2024-03-02T13:06:56;12.70;1.00
10304;DHT22;5197;48.152;8.590;2024-03-02T13:09:24;12.80;1.00
10304;DHT22;5197;48.152;8.590;2024-03-02T13:11:51;12.70;1.00
10304;DHT22;5197;48.152;8.590;2024-03-02T13:14:18;12.70;1.00
10304;DHT22;5197;48.152;8.590;2024-03-02T13:16:48;14.60;1.00
10304;DHT22;5197;48.152;8.590;2024-03-02T13:19:18;12.80;1.00
10304;DHT22;5197;48.152;8.590;2024-03-02T13:21:45;12.90;1.00
10304;DHT22;5197;48.152;8.590;2024-03-02T13:24:13;13.00;1.00
10304;DHT22;5197;48.152;8.590;2024-03-02T13:26:40;13.10;1.00
10304;DHT22;5197;48.152;8.590;2024-03-02T13:29:07;13.20;1.00
10304;DHT22;5197;48.152;8.590;2024-03-02T13:31:34;13.10;1.00
10304;DHT22;5197;48.152;8.590;2024-03-02T13:34:01;13.20;1.00
10304;DHT22;5197;48.152;8.590;2024-03-02T13:36:28;13.10;1.00
10304;DHT22;5197;48.152;8.590;2024-03-02T13:38:55;13.00;1.00
10304;DHT22;5197;48.152;8.590;2024-03-02T13:41:22;12.90;1.00
10304;DHT22;5197;48.152;8.590;2024-03-02T13:43:48;13.00;1.00
10304;DHT22;5197;48.152;8.590;2024-03-02T13:46:18;13.10;1.00
10304;DHT22;5197;48.152;8.590;2024-03-02T13:48:45;14.50;1.00
10304;DHT22;5197;48.152;8.590;2024-03-02T13:51:12;13.00;1.00
10304;DHT22;5197;48.152;8.590;2024-03-02T13:53:39;13.10;1.00
10304;DHT22;5197;48.152;8.590;2024-03-02T13:56:06;13.10;1.00
10304;DHT22;5197;48.152;8.590;2024-03-02T13:58:33;13.10;1.00
10304;DHT22;5197;48.152;8.590;2024-03-02T14:01:00;13.20;1.00
10304;DHT22;5197;48.152;8.590;2024-03-02T14:03:28;13.40;1.00
10304;DHT22;5197;48.152;8.590;2024-03-02T14:05:57;13.70;1.00
10304;DHT22;5197;48.152;8.590;2024-03-02T14:08:24;14.10;1.00
10304;DHT22;5197;48.152;8.590;2024-03-02T14:10:51;13.70;1.00
10304;DHT22;5197;48.152;8.590;2024-03-02T14:13:18;13.70;1.00
10304;DHT22;5197;48.152;8.590;2024-03-02T14:15:45;14.30;1.00
10304;DHT22;5197;48.152;8.590;2024-03-02T14:18:12;13.70;1.00
10304;DHT22;5197;48.152;8.590;2024-03-02T14:20:39;13.60;1.00
10304;DHT22;5197;48.152;8.590;2024-03-02T14:23:08;13.60;1.00
10304;DHT22;5197;48.152;8.590;2024-03-02T14:25:37;13.60;1.00
10304;DHT22;5197;48.152;8.590;2024-03-02T14:28:28;13.50;1.00
10304;DHT22;5197;48.152;8.590;2024-03-02T14:31:14;13.60;1.00
10304;DHT22;5197;48.152;8.590;2024-03-02T14:33:44;13.90;1.00
10304;DHT22;5197;48.152;8.590;2024-03-02T14:36:11;13.50;1.00
10304;DHT22;5197;48.152;8.590;2024-03-02T14:38:38;13.50;1.00
10304;DHT22;5197;48.152;8.590;2024-03-02T14:41:05;13.50;1.00
10304;DHT22;5197;48.152;8.590;2024-03-02T14:43:32;15.30;1.00
10304;DHT22;5197;48.152;8.590;2024-03-02T14:45:59;15.40;1.00
10304;DHT22;5197;48.152;8.590;2024-03-02T14:48:26;13.40;1.00
10304;DHT22;5197;48.152;8.590;2024-03-02T14:50:53;13.50;1.00
10304;DHT22;5197;48.152;8.590;2024-03-02T14:53:20;13.60;1.00
10304;DHT22;5197;48.152;8.590;2024-03-02T14:55:47;13.50;1.00
10304;DHT22;5197;48.152;8.590;2024-03-02T14:58:14;13.60;1.00
10304;DHT22;5197;48.152;8.590;2024-03-02T15:00:42;13.60;1.00
10304;DHT22;5197;48.152;8.590;2024-03-02T15:03:32;13.60;1.00
10304;DHT22;5197;48.152;8.590;2024-03-02T15:06:00;13.60;1.00
10304;DHT22;5197;48.152;8.590;2024-03-02T15:08:26;13.50;1.00
10304;DHT22;5197;48.152;8.590;2024-03-02T15:10:53;13.30;1.00
10304;DHT22;5197;48.152;8.590;2024-03-02T15:13:23;13.30;1.00
10304;DHT22;5197;48.152;8.590;2024-03-02T15:15:51;14.20;1.00
10304;DHT22;5197;48.152;8.590;2024-03-02T15:18:19;13.20;1.00
10304;DHT22;5197;48.152;8.590;2024-03-02T15:20:46;13.20;1.00
10304;DHT22;5197;48.152;8.590;2024-03-02T15:23:13;13.90;1.00
10304;DHT22;5197;48.152;8.590;2024-03-02T15:25:40;13.00;1.00
10304;DHT22;5197;48.152;8.590;2024-03-02T15:28:07;13.00;1.00
10304;DHT22;5197;48.152;8.590;2024-03-02T15:30:34;13.00;1.00
10304;DHT22;5197;48.152;8.590;2024-03-02T15:33:01;12.90;1.00
10304;DHT22;5197;48.152;8.590;2024-03-02T15:35:28;12.90;1.00
10304;DHT22;5197;48.152;8.590;2024-03-02T15:37:54;12.80;1.00
10304;DHT22;5197;48.152;8.590;2024-03-02T15:40:21;12.80;1.00
10304;DHT22;5197;48.152;8.590;2024-03-02T15:42:48;12.80;1.00
10304;DHT22;5197;48.152;8.590;2024-03-02T15:45:15;12.70;1.00
10304;DHT22;5197;48.152;8.590;2024-03-02T15:47:42;13.20;1.00
10304;DHT22;5197;48.152;8.590;2024-03-02T15:50:09;12.50;1.00
10304;DHT22;5197;48.152;8.590;2024-03-02T15:52:36;12.50;1.00
10304;DHT22;5197;48.152;8.590;2024-03-02T15:55:03;12.50;1.00
10304;DHT22;5197;48.152;8.590;2024-03-02T15:57:33;12.40;1.00
10304;DHT22;5197;48.152;8.590;2024-03-02T16:00:00;14.10;1.00
10304;DHT22;5197;48.152;8.590;2024-03-02T16:02:27;12.40;1.00
10304;DHT22;5197;48.152;8.590;2024-03-02T16:04:54;13.10;1.00
10304;DHT22;5197;48.152;8.590;2024-03-02T16:07:21;12.20;1.00
10304;DHT22;5197;48.152;8.590;2024-03-02T16:09:48;12.10;1.00
10304;DHT22;5197;48.152;8.590;2024-03-02T16:12:14;13.10;1.00
10304;DHT22;5197;48.152;8.590;2024-03-02T16:14:42;12.00;1.00